Roma, Italia

11:11 AM CEST del 06 Luglio 2015 (GMT +0200)
Ciampino | | Change Station
CLOSE
Current Station
Stazione meteo personale
Location: Ciampino, LAZIO
Altitudine: 348 ft
Stazioni meteo nelle vicinanze
Avvisi attivi: Extreme high temperature

Alt. 348 ft 41.81 °N, 12.60 °E | Updated 1 minute ago

Clear
Sereno
95.2 °F
Sembra 100 °F
N
1.6
Vento Variabile Vento da NO
Gusts 2.2 mph

Oggi
Massima -- | Minima -- °F
--% Possibilità di precip.
Ieri
Massima -- | Minima -- °F
Precip. -- in
5:41 AM 8:47 PM
Gobba a levante, 77% visible
Pressione 30.06 in
Visibilità -9999.0 miglia
Nuvole
Indice di calore 100 °F
Punto di rugiada 68 °F
Umidità 41%
Piovosità 0.00 in
Spessore del manto nevoso Non disponibile.
Raggi UV 4.0 fuori da 12
Polline Non disponibile.
Qualità dell'aria Non disponibile.
Flu Activity Non disponibile.
METAR LIRE 060855Z 24007KT CAVOK 29/25 Q1018 RMK SKC VIS MIN 9999 WIND THR31 25004KT BLU

More Conditions Fewer Conditions

Pressione 30.06 in
Visibilità -9999.0 miglia
Nuvole
Indice di calore 100 °F
Punto di rugiada 68 °F
Umidità 41%
Piovosità 0.00 in
Spessore del manto nevoso Non disponibile.
Raggi UV 4.0 fuori da 12
Polline Non disponibile.
Qualità dell'aria Non disponibile.
Flu Activity Non disponibile.
METAR LIRE 060855Z 24007KT CAVOK 29/25 Q1018 RMK SKC VIS MIN 9999 WIND THR31 25004KT BLU

More Conditions Fewer Conditions

10-Day Weather Forecast

×

Almanac

Astronomia

Jul. 06, 2015 Alba Tramonto
Ora attuale
Crepuscolo civile
Crepuscolo nautico
Crepuscolo astronomico
Luna
Estensione della luce visibile
Lunghezza del giorno
Tomorrow will be .
, % of the Moon is Illuminated

Gli estremi di oggi

Massime Regione Minime Regione

Community

WunderPhotos

Upload Photos

1,835,520 foto caricate!

WunderBlogs® & News

Nearby

Qualità dell'aria

  Qualità dell'aria Indice AQ Inquinante
Not available.

Profondità neve

Stazione Profondità Altitudine

Attività sismica

Città  Distanza Mag. Data & Ora
Minimo Magnitudo Mostrato è 2.5.

Temperature delle acque costiere

Località Temperatura

Stations

Stazioni meteo nelle vicinanze

Ubicazione della stazione Temp. Raffreddamento del vento Punto di rugiada Umidità Vento Precip. Alt. Aggiornato Tipo